Terminal Aerodrome Forecast
Issued by NWS Twin Cities, MN

Home | Current Version | Previous Version | Text Only | Print | Product List | Glossary On
Versions: 1 2 3 4 5 6 7 8 9 10 11 12 13 14 15 16 17 18 19 20 21 22 23 24 25 26 27
000
FTUS43 KMPX 250600 AAA
TAFEAU
TAF AMD
KEAU 250623Z 2506/2606 25005KT 4SM BR SCT002
     FM250700 26007KT 6SM BR FEW002
     FM251000 28008KT P6SM SCT110
     FM251600 29014G22KT P6SM FEW100
     FM260000 29006KT P6SM SKC=

USA.gov is the U.S. government's official web portal to all federal, state and local government web resources and services.